Time;durP1;ratioP1;P1;durP2;ratioP2;P2;SDS_P1;SDS_P2;PMS_P1;PMS_P2;Temp;Humidity;BMP_temperature;BMP_pressure;BME280_temperature;BME280_humidity;BME280_pressure;Samples;Min_cycle;Max_cycle;Signal;HPM_P1;HPM_P2
2021/06/22 00:02:18;;;;;;;0.35;0.35;;;;;;;;;;5070847;28;20131;-73
2021/06/22 00:04:45;;;;;;;0.80;0.50;;;;;;;;;;5071098;28;20040;-72
2021/06/22 00:07:14;;;;;;;2.25;0.43;;;;;;;;;;5069587;28;20153;-72
2021/06/22 00:09:40;;;;;;;0.50;0.40;;;;;;;;;;5069351;28;20053;-73
2021/06/22 00:12:07;;;;;;;0.40;0.30;;;;;;;;;;5070683;28;20067;-72
2021/06/22 00:14:33;;;;;;;0.43;0.30;;;;;;;;;;5071141;28;20208;-73
2021/06/22 00:16:59;;;;;;;1.15;0.30;;;;;;;;;;5070735;28;20446;-73
2021/06/22 00:19:25;;;;;;;0.57;0.40;;;;;;;;;;5071452;28;20044;-72
2021/06/22 00:21:51;;;;;;;0.30;0.22;;;;;;;;;;5070369;28;20057;-73
2021/06/22 00:24:17;;;;;;;0.82;0.30;;;;;;;;;;5070678;28;20064;-72
2021/06/22 00:26:43;;;;;;;1.58;0.30;;;;;;;;;;5071273;28;20076;-72
2021/06/22 00:29:09;;;;;;;0.25;0.25;;;;;;;;;;5070000;28;20060;-72
2021/06/22 00:31:35;;;;;;;0.30;0.20;;;;;;;;;;5070633;28;20075;-72
2021/06/22 00:34:02;;;;;;;0.90;0.40;;;;;;;;;;5069751;28;20551;-72
2021/06/22 00:36:28;;;;;;;0.50;0.40;;;;;;;;;;5070711;28;20538;-72
2021/06/22 00:38:54;;;;;;;0.35;0.20;;;;;;;;;;5070038;28;20052;-73
2021/06/22 00:41:21;;;;;;;1.17;0.30;;;;;;;;;;5070713;28;20044;-72
2021/06/22 00:43:47;;;;;;;0.73;0.30;;;;;;;;;;5070031;28;20056;-72
2021/06/22 00:46:13;;;;;;;0.30;0.30;;;;;;;;;;5070592;28;20135;-72
2021/06/22 00:48:39;;;;;;;0.30;0.30;;;;;;;;;;5070804;28;20074;-72
2021/06/22 00:51:05;;;;;;;0.43;0.30;;;;;;;;;;5069921;28;20364;-72
2021/06/22 00:53:32;;;;;;;0.98;0.38;;;;;;;;;;5070495;28;20041;-72
2021/06/22 00:55:58;;;;;;;3.13;0.40;;;;;;;;;;5069823;28;20086;-73
2021/06/22 00:58:24;;;;;;;2.10;0.45;;;;;;;;;;5070391;28;20102;-72
2021/06/22 01:00:50;;;;;;;0.43;0.40;;;;;;;;;;5069251;28;20060;-72
2021/06/22 01:03:17;;;;;;;1.48;0.40;;;;;;;;;;5069477;28;20530;-73
2021/06/22 01:05:43;;;;;;;0.80;0.35;;;;;;;;;;5069464;28;20041;-72
2021/06/22 01:08:11;;;;;;;0.30;0.30;;;;;;;;;;5069328;28;20048;-72
2021/06/22 01:10:38;;;;;;;0.65;0.40;;;;;;;;;;5069981;28;20051;-73
2021/06/22 01:13:04;;;;;;;0.43;0.30;;;;;;;;;;5068973;28;20040;-72
2021/06/22 01:15:31;;;;;;;0.50;0.30;;;;;;;;;;5069968;28;20068;-72
2021/06/22 01:17:59;;;;;;;0.15;0.15;;;;;;;;;;5068998;28;20052;-73
2021/06/22 01:20:30;;;;;;;0.38;0.38;;;;;;;;;;5069757;28;20043;-72
2021/06/22 01:22:56;;;;;;;1.13;0.30;;;;;;;;;;5068992;28;20052;-72
2021/06/22 01:25:22;;;;;;;0.30;0.30;;;;;;;;;;5069823;28;20499;-72
2021/06/22 01:27:48;;;;;;;0.50;0.40;;;;;;;;;;5069724;28;20045;-72
2021/06/22 01:30:15;;;;;;;0.22;0.20;;;;;;;;;;5069434;28;20136;-72
2021/06/22 01:32:42;;;;;;;0.60;0.43;;;;;;;;;;5069252;28;20080;-72
2021/06/22 01:35:08;;;;;;;0.30;0.20;;;;;;;;;;5068717;28;20554;-73
2021/06/22 01:37:35;;;;;;;2.10;0.90;;;;;;;;;;5069814;28;20464;-72
2021/06/22 01:40:06;;;;;;;1.38;0.50;;;;;;;;;;5068996;28;20056;-72
2021/06/22 01:42:32;;;;;;;0.47;0.47;;;;;;;;;;5069475;28;20529;-72
2021/06/22 01:44:59;;;;;;;3.17;0.93;;;;;;;;;;5068736;28;20064;-72
2021/06/22 01:47:25;;;;;;;0.32;0.25;;;;;;;;;;5069464;28;20086;-72
2021/06/22 01:49:58;;;;;;;0.45;0.38;;;;;;;;;;5068891;28;20052;-72
2021/06/22 01:52:24;;;;;;;0.52;0.22;;;;;;;;;;5069401;28;20124;-72
2021/06/22 01:54:53;;;;;;;0.88;0.47;;;;;;;;;;5068803;28;20055;-72
2021/06/22 01:57:20;;;;;;;0.30;0.25;;;;;;;;;;5069645;28;20052;-72
2021/06/22 01:59:46;;;;;;;0.30;0.30;;;;;;;;;;5068735;28;20052;-72
2021/06/22 02:02:12;;;;;;;0.38;0.30;;;;;;;;;;5068823;28;20036;-72
2021/06/22 02:04:38;;;;;;;0.50;0.50;;;;;;;;;;5068986;28;20182;-72
2021/06/22 02:07:04;;;;;;;0.50;0.30;;;;;;;;;;5085728;28;20059;-72
2021/06/22 02:09:30;;;;;;;2.00;0.32;;;;;;;;;;5089283;28;20051;-72
2021/06/22 02:11:57;;;;;;;1.27;0.85;;;;;;;;;;5088452;28;20134;-72
2021/06/22 02:14:23;;;;;;;0.20;0.20;;;;;;;;;;5088676;28;20405;-72
2021/06/22 02:16:49;;;;;;;0.60;0.22;;;;;;;;;;5089238;28;20048;-72
2021/06/22 02:19:15;;;;;;;0.95;0.30;;;;;;;;;;5089322;28;20052;-72
2021/06/22 02:21:41;;;;;;;1.00;0.73;;;;;;;;;;5089173;28;20109;-72
2021/06/22 02:24:07;;;;;;;0.60;0.30;;;;;;;;;;5088149;28;20602;-72
2021/06/22 02:26:34;;;;;;;0.60;0.45;;;;;;;;;;5089031;28;20464;-72
2021/06/22 02:29:00;;;;;;;0.20;0.20;;;;;;;;;;5089052;28;20052;-72
2021/06/22 02:31:26;;;;;;;1.27;0.22;;;;;;;;;;5093265;28;20091;-72
2021/06/22 02:33:52;;;;;;;0.60;0.60;;;;;;;;;;5092591;28;20040;-72
2021/06/22 02:36:20;;;;;;;0.32;0.28;;;;;;;;;;5093287;28;20054;-72
2021/06/22 02:38:46;;;;;;;0.73;0.60;;;;;;;;;;5093317;28;20040;-72
2021/06/22 02:41:12;;;;;;;0.25;0.25;;;;;;;;;;5092504;28;20059;-72
2021/06/22 02:43:38;;;;;;;2.08;0.50;;;;;;;;;;5092837;28;20040;-72
2021/06/22 02:46:04;;;;;;;0.50;0.47;;;;;;;;;;5091962;28;20087;-72
2021/06/22 02:48:30;;;;;;;0.40;0.40;;;;;;;;;;5092860;28;20122;-73
2021/06/22 02:50:56;;;;;;;0.45;0.40;;;;;;;;;;5092162;28;20089;-72
2021/06/22 02:53:22;;;;;;;0.40;0.25;;;;;;;;;;5092414;28;20044;-72
2021/06/22 02:55:49;;;;;;;0.52;0.25;;;;;;;;;;5072831;28;20047;-72
2021/06/22 02:58:15;;;;;;;0.50;0.30;;;;;;;;;;5072467;28;20048;-72
2021/06/22 03:00:41;;;;;;;0.60;0.60;;;;;;;;;;5072529;28;20197;-72
2021/06/22 03:03:07;;;;;;;0.20;0.20;;;;;;;;;;5071505;28;20460;-72
2021/06/22 03:05:33;;;;;;;0.20;0.20;;;;;;;;;;5072378;28;20098;-72
2021/06/22 03:08:00;;;;;;;0.47;0.40;;;;;;;;;;5071997;28;20110;-72
2021/06/22 03:10:26;;;;;;;0.22;0.22;;;;;;;;;;5072227;28;20039;-72
2021/06/22 03:12:52;;;;;;;0.47;0.32;;;;;;;;;;5071652;28;20417;-72
2021/06/22 03:15:19;;;;;;;1.55;0.60;;;;;;;;;;5072169;28;20052;-72
2021/06/22 03:17:45;;;;;;;0.30;0.25;;;;;;;;;;5072442;28;20102;-72
2021/06/22 03:20:12;;;;;;;0.20;0.20;;;;;;;;;;5071627;28;20067;-72
2021/06/22 03:22:38;;;;;;;0.45;0.30;;;;;;;;;;5072344;28;20047;-72
2021/06/22 03:25:05;;;;;;;0.47;0.20;;;;;;;;;;5068965;28;20045;-72
2021/06/22 03:27:32;;;;;;;0.60;0.60;;;;;;;;;;5071922;28;20059;-72
2021/06/22 03:29:58;;;;;;;0.57;0.57;;;;;;;;;;5071333;28;20094;-72
2021/06/22 03:32:25;;;;;;;0.30;0.30;;;;;;;;;;5071683;28;20388;-72
2021/06/22 03:34:51;;;;;;;1.80;0.38;;;;;;;;;;5071047;28;20051;-72
2021/06/22 03:37:17;;;;;;;0.20;0.20;;;;;;;;;;5071608;28;20087;-72
2021/06/22 03:39:43;;;;;;;0.20;0.20;;;;;;;;;;5071605;28;20075;-72
2021/06/22 03:42:10;;;;;;;0.50;0.40;;;;;;;;;;5071069;28;20106;-72
2021/06/22 03:44:37;;;;;;;0.65;0.40;;;;;;;;;;5071304;28;20105;-72
2021/06/22 03:47:03;;;;;;;2.53;0.30;;;;;;;;;;5070923;28;20048;-72
2021/06/22 03:49:30;;;;;;;0.30;0.30;;;;;;;;;;5071632;28;20048;-72
2021/06/22 03:51:56;;;;;;;0.20;0.20;;;;;;;;;;5071377;28;20052;-72
2021/06/22 03:54:22;;;;;;;0.77;0.75;;;;;;;;;;5070781;28;20052;-73
2021/06/22 03:56:48;;;;;;;2.30;0.20;;;;;;;;;;5070626;28;20475;-72
2021/06/22 03:59:14;;;;;;;0.10;0.10;;;;;;;;;;5071145;28;20051;-72
2021/06/22 04:01:40;;;;;;;1.27;0.68;;;;;;;;;;5071321;28;20060;-72
2021/06/22 04:04:06;;;;;;;0.38;0.38;;;;;;;;;;5070314;28;20127;-72
2021/06/22 04:06:32;;;;;;;0.40;0.30;;;;;;;;;;5071340;28;20052;-72
2021/06/22 04:08:58;;;;;;;0.10;0.10;;;;;;;;;;5070279;28;20076;-72
2021/06/22 04:11:25;;;;;;;0.38;0.38;;;;;;;;;;5071508;28;20131;-72
2021/06/22 04:13:51;;;;;;;0.20;0.20;;;;;;;;;;5070176;28;20064;-72
2021/06/22 04:16:17;;;;;;;0.40;0.20;;;;;;;;;;5071073;28;20247;-73
2021/06/22 04:18:43;;;;;;;0.38;0.38;;;;;;;;;;5071357;28;20208;-72
2021/06/22 04:21:09;;;;;;;0.30;0.30;;;;;;;;;;5070555;28;20421;-73
2021/06/22 04:23:35;;;;;;;0.95;0.22;;;;;;;;;;5070558;28;20056;-72
2021/06/22 04:26:02;;;;;;;0.13;0.13;;;;;;;;;;5070103;28;20414;-73
2021/06/22 04:28:28;;;;;;;0.10;0.10;;;;;;;;;;5071142;28;20037;-72
2021/06/22 04:30:54;;;;;;;0.38;0.30;;;;;;;;;;5070007;28;20530;-73
2021/06/22 04:33:20;;;;;;;0.47;0.30;;;;;;;;;;5070499;28;20037;-72
2021/06/22 04:35:46;;;;;;;0.68;0.30;;;;;;;;;;5070683;28;20051;-72
2021/06/22 04:38:12;;;;;;;0.40;0.40;;;;;;;;;;5070554;28;20056;-72
2021/06/22 04:40:39;;;;;;;0.20;0.20;;;;;;;;;;5070834;28;20048;-72
2021/06/22 04:43:05;;;;;;;1.55;0.20;;;;;;;;;;5069644;28;20052;-73
2021/06/22 04:45:32;;;;;;;0.40;0.30;;;;;;;;;;5070728;28;20510;-72
2021/06/22 04:47:59;;;;;;;0.22;0.20;;;;;;;;;;5070092;28;20051;-72
2021/06/22 04:50:25;;;;;;;0.93;0.20;;;;;;;;;;5070503;28;20048;-72
2021/06/22 04:52:51;;;;;;;0.73;0.30;;;;;;;;;;5069434;28;20051;-72
2021/06/22 04:55:22;;;;;;;0.30;0.30;;;;;;;;;;5070474;28;20498;-72
2021/06/22 04:57:48;;;;;;;0.30;0.20;;;;;;;;;;5070373;28;20045;-72
2021/06/22 05:00:14;;;;;;;0.10;0.10;;;;;;;;;;5069940;28;20583;-73
2021/06/22 05:02:41;;;;;;;0.88;0.30;;;;;;;;;;5069708;28;20076;-72
2021/06/22 05:05:08;;;;;;;0.50;0.32;;;;;;;;;;5068838;28;20102;-72
2021/06/22 05:07:34;;;;;;;0.40;0.40;;;;;;;;;;5070107;28;20036;-72
2021/06/22 05:10:00;;;;;;;0.25;0.25;;;;;;;;;;5069459;28;20076;-72
2021/06/22 05:12:26;;;;;;;0.52;0.50;;;;;;;;;;5069726;28;20387;-73
2021/06/22 05:14:53;;;;;;;0.30;0.30;;;;;;;;;;5069144;28;20048;-72
2021/06/22 05:17:19;;;;;;;3.40;0.93;;;;;;;;;;5069997;28;20217;-72
2021/06/22 05:19:45;;;;;;;1.08;0.30;;;;;;;;;;5069771;28;20052;-72
2021/06/22 05:22:13;;;;;;;0.68;0.28;;;;;;;;;;5069306;28;20094;-72
2021/06/22 05:24:39;;;;;;;0.55;0.35;;;;;;;;;;5069383;28;20044;-72
2021/06/22 05:27:05;;;;;;;0.30;0.30;;;;;;;;;;5068953;28;20574;-73
2021/06/22 05:29:31;;;;;;;0.22;0.22;;;;;;;;;;5069557;28;20410;-72
2021/06/22 05:31:57;;;;;;;0.38;0.28;;;;;;;;;;5068645;28;20055;-72
2021/06/22 05:34:23;;;;;;;0.55;0.55;;;;;;;;;;5069209;28;20147;-72
2021/06/22 05:36:49;;;;;;;0.47;0.20;;;;;;;;;;5068970;28;20041;-72
2021/06/22 05:39:15;;;;;;;1.23;0.82;;;;;;;;;;5069427;28;20051;-72
2021/06/22 05:41:42;;;;;;;0.17;0.17;;;;;;;;;;5069495;28;20053;-72
2021/06/22 05:44:08;;;;;;;0.28;0.28;;;;;;;;;;5068039;28;20484;-72
2021/06/22 05:46:34;;;;;;;0.73;0.30;;;;;;;;;;5069643;28;20048;-72
2021/06/22 05:49:00;;;;;;;0.40;0.40;;;;;;;;;;5068502;28;20080;-72
2021/06/22 05:51:26;;;;;;;0.40;0.30;;;;;;;;;;5069826;28;20049;-72
2021/06/22 05:53:53;;;;;;;1.95;0.55;;;;;;;;;;5067957;28;20037;-72
2021/06/22 05:56:19;;;;;;;0.68;0.52;;;;;;;;;;5065797;28;20057;-73
2021/06/22 05:58:45;;;;;;;0.85;0.50;;;;;;;;;;5082984;28;20044;-73
2021/06/22 06:01:11;;;;;;;1.45;0.88;;;;;;;;;;5087566;28;20628;-73
2021/06/22 06:03:37;;;;;;;2.67;0.50;;;;;;;;;;5061815;28;20127;-72
2021/06/22 06:06:04;;;;;;;1.42;0.70;;;;;;;;;;5064252;28;20044;-72
2021/06/22 06:08:32;;;;;;;3.55;0.73;;;;;;;;;;5067911;28;20044;-73
2021/06/22 06:10:59;;;;;;;3.08;0.90;;;;;;;;;;5067806;28;20051;-73
2021/06/22 06:13:35;;;;;;;1.58;0.77;;;;;;;;;;5067986;28;20048;-72
2021/06/22 06:16:01;;;;;;;1.52;1.15;;;;;;;;;;5065564;28;20113;-76
2021/06/22 06:18:27;;;;;;;3.20;0.95;;;;;;;;;;5066745;28;20122;-77
2021/06/22 06:20:55;;;;;;;2.13;1.10;;;;;;;;;;5049989;28;20084;-77
2021/06/22 06:23:23;;;;;;;2.88;0.80;;;;;;;;;;5056133;28;20085;-77
2021/06/22 06:25:49;;;;;;;3.15;1.48;;;;;;;;;;5063393;28;20041;-77
2021/06/22 06:28:21;;;;;;;0.55;0.55;;;;;;;;;;5062419;28;20049;-77
2021/06/22 06:30:47;;;;;;;1.85;1.40;;;;;;;;;;5066558;28;20478;-77
2021/06/22 06:33:13;;;;;;;2.15;1.50;;;;;;;;;;5066004;28;20056;-79
2021/06/22 06:35:40;;;;;;;1.08;0.98;;;;;;;;;;5065090;28;20372;-78
2021/06/22 06:38:06;;;;;;;0.63;0.63;;;;;;;;;;5061145;28;20361;-78
2021/06/22 06:40:34;;;;;;;0.75;0.40;;;;;;;;;;5067589;28;20055;-76
2021/06/22 06:43:01;;;;;;;2.60;0.75;;;;;;;;;;5061457;28;20056;-79
2021/06/22 06:45:27;;;;;;;3.35;1.10;;;;;;;;;;5059024;28;20071;-79
2021/06/22 06:47:53;;;;;;;3.55;0.68;;;;;;;;;;5047236;28;20053;-78
2021/06/22 06:50:19;;;;;;;0.80;0.80;;;;;;;;;;5064511;28;20124;-79
2021/06/22 06:52:45;;;;;;;10.60;1.33;;;;;;;;;;5066949;28;20440;-75
2021/06/22 06:55:27;;;;;;;1.30;0.90;;;;;;;;;;5066225;28;20202;-76
2021/06/22 06:57:55;;;;;;;1.80;1.45;;;;;;;;;;5061642;28;20063;-73
2021/06/22 07:00:24;;;;;;;1.50;1.40;;;;;;;;;;5059941;28;20113;-73
2021/06/22 07:02:50;;;;;;;2.80;1.23;;;;;;;;;;5059058;28;20057;-73
2021/06/22 07:05:16;;;;;;;1.42;1.33;;;;;;;;;;5062301;28;20056;-74
2021/06/22 07:07:42;;;;;;;1.45;1.05;;;;;;;;;;5061093;28;20052;-74
2021/06/22 07:10:08;;;;;;;1.75;1.63;;;;;;;;;;5061045;28;20064;-74
2021/06/22 07:12:35;;;;;;;2.20;2.00;;;;;;;;;;5041978;28;20064;-74
2021/06/22 07:15:01;;;;;;;4.22;0.90;;;;;;;;;;5057137;28;20944;-74
2021/06/22 07:17:27;;;;;;;1.38;1.27;;;;;;;;;;5061790;28;20123;-73
2021/06/22 07:19:53;;;;;;;2.08;1.42;;;;;;;;;;5063181;28;20040;-73
2021/06/22 07:22:19;;;;;;;3.70;1.20;;;;;;;;;;5067045;28;20051;-73
2021/06/22 07:24:45;;;;;;;1.73;1.63;;;;;;;;;;5061616;28;20690;-73
2021/06/22 07:27:11;;;;;;;2.13;0.77;;;;;;;;;;5063441;28;20056;-73
2021/06/22 07:29:37;;;;;;;1.10;0.80;;;;;;;;;;5065166;28;20064;-73
2021/06/22 07:32:04;;;;;;;2.47;1.10;;;;;;;;;;5064491;28;20048;-74
2021/06/22 07:34:30;;;;;;;2.22;1.45;;;;;;;;;;5062201;28;20056;-74
2021/06/22 07:36:56;;;;;;;2.92;2.35;;;;;;;;;;5065047;28;20126;-73
2021/06/22 07:39:22;;;;;;;2.20;1.38;;;;;;;;;;5065232;28;20575;-73
2021/06/22 07:41:48;;;;;;;2.28;0.85;;;;;;;;;;5065051;28;20094;-73
2021/06/22 07:44:14;;;;;;;1.80;0.90;;;;;;;;;;5063480;28;20049;-73
2021/06/22 07:46:40;;;;;;;1.20;1.10;;;;;;;;;;5064128;28;20057;-73
2021/06/22 07:49:06;;;;;;;0.93;0.80;;;;;;;;;;5064019;28;20462;-73
2021/06/22 07:51:33;;;;;;;0.75;0.75;;;;;;;;;;5065154;28;20053;-73
2021/06/22 07:53:59;;;;;;;2.20;1.10;;;;;;;;;;5062793;28;20044;-73
2021/06/22 07:56:25;;;;;;;1.15;1.05;;;;;;;;;;5064483;28;20510;-72
2021/06/22 07:58:51;;;;;;;0.60;0.60;;;;;;;;;;5064180;28;20094;-73
2021/06/22 08:01:20;;;;;;;1.70;1.60;;;;;;;;;;5058363;28;20127;-73
2021/06/22 08:03:47;;;;;;;2.03;1.05;;;;;;;;;;5063689;28;20064;-73
2021/06/22 08:06:13;;;;;;;2.67;1.27;;;;;;;;;;5063537;28;20171;-73
2021/06/22 08:08:39;;;;;;;0.63;0.63;;;;;;;;;;5068106;28;20087;-73
2021/06/22 08:11:05;;;;;;;5.10;1.25;;;;;;;;;;5066823;28;20105;-73
2021/06/22 08:13:33;;;;;;;1.98;0.77;;;;;;;;;;5070073;28;20051;-73
2021/06/22 08:16:01;;;;;;;0.75;0.52;;;;;;;;;;5068980;28;20036;-73
2021/06/22 08:18:27;;;;;;;2.15;0.40;;;;;;;;;;5068182;28;20075;-73
2021/06/22 08:20:54;;;;;;;0.60;0.50;;;;;;;;;;5066890;28;20049;-73
2021/06/22 08:23:20;;;;;;;1.73;0.70;;;;;;;;;;5069005;28;20056;-72
2021/06/22 08:25:47;;;;;;;2.90;0.45;;;;;;;;;;5068421;28;20052;-73
2021/06/22 08:28:13;;;;;;;3.95;0.82;;;;;;;;;;5067051;28;20052;-73
2021/06/22 08:30:39;;;;;;;0.68;0.50;;;;;;;;;;5069385;28;20041;-73
2021/06/22 08:33:09;;;;;;;1.23;0.82;;;;;;;;;;5067623;28;20040;-73
2021/06/22 08:35:36;;;;;;;1.10;0.35;;;;;;;;;;5068881;28;20091;-73
2021/06/22 08:38:04;;;;;;;1.23;0.60;;;;;;;;;;5067787;28;20059;-73
2021/06/22 08:40:30;;;;;;;0.35;0.35;;;;;;;;;;5068586;28;20037;-73
2021/06/22 08:42:56;;;;;;;0.70;0.70;;;;;;;;;;5063803;28;20096;-72
2021/06/22 08:45:22;;;;;;;1.92;0.50;;;;;;;;;;5064156;28;20048;-74
2021/06/22 08:47:48;;;;;;;0.82;0.68;;;;;;;;;;5069326;28;20131;-73
2021/06/22 08:50:15;;;;;;;2.10;0.43;;;;;;;;;;5069019;28;20059;-74
2021/06/22 08:52:42;;;;;;;0.85;0.50;;;;;;;;;;5068678;28;20048;-73
2021/06/22 08:55:25;;;;;;;0.63;0.55;;;;;;;;;;5066244;28;20102;-73
2021/06/22 08:57:51;;;;;;;1.02;0.30;;;;;;;;;;5055577;28;20045;-73
2021/06/22 09:00:17;;;;;;;3.10;0.50;;;;;;;;;;5061088;28;20094;-74
2021/06/22 09:02:43;;;;;;;1.85;0.90;;;;;;;;;;5065607;28;20060;-71
2021/06/22 09:05:09;;;;;;;2.45;1.58;;;;;;;;;;5067015;28;20522;-73
2021/06/22 09:07:41;;;;;;;5.05;1.10;;;;;;;;;;5073993;28;20217;-74
2021/06/22 09:10:08;;;;;;;1.65;0.98;;;;;;;;;;5066736;28;20048;-73
2021/06/22 09:12:35;;;;;;;0.82;0.57;;;;;;;;;;5068705;28;20071;-74
2021/06/22 09:15:01;;;;;;;0.65;0.63;;;;;;;;;;5068132;28;20182;-73
2021/06/22 09:17:34;;;;;;;2.72;0.50;;;;;;;;;;5068857;28;20048;-72
2021/06/22 09:20:00;;;;;;;2.45;0.50;;;;;;;;;;5048161;28;20534;-73
2021/06/22 09:22:28;;;;;;;2.45;0.77;;;;;;;;;;5056296;28;20052;-73
2021/06/22 09:25:01;;;;;;;0.82;0.55;;;;;;;;;;5067994;28;20068;-73
2021/06/22 09:27:45;;;;;;;1.55;0.70;;;;;;;;;;5067708;28;20063;-72
2021/06/22 09:30:11;;;;;;;;;;;;;;;;;;5063961;28;20056;-77
2021/06/22 09:32:37;;;;;;;0.55;0.55;;;;;;;;;;5057486;28;19951;-73
2021/06/22 09:35:19;;;;;;;0.82;0.55;;;;;;;;;;5061492;28;20045;-73
2021/06/22 09:37:49;;;;;;;2.05;0.38;;;;;;;;;;5062638;28;20052;-73
2021/06/22 09:40:28;;;;;;;0.88;0.40;;;;;;;;;;5060610;28;20057;-73
2021/06/22 09:42:55;;;;;;;0.90;0.50;;;;;;;;;;5060532;28;20041;-73
2021/06/22 09:45:22;;;;;;;3.15;0.40;;;;;;;;;;5061227;28;20059;-73
2021/06/22 09:47:48;;;;;;;0.80;0.68;;;;;;;;;;5062399;28;20064;-73
2021/06/22 09:50:40;;;;;;;1.35;0.95;;;;;;;;;;5061329;28;20051;-74
2021/06/22 09:53:26;;;;;;;0.90;0.90;;;;;;;;;;5057079;28;20059;-74
2021/06/22 09:55:53;;;;;;;3.28;0.60;;;;;;;;;;5062342;28;20059;-73
2021/06/22 09:58:35;;;;;;;1.08;0.98;;;;;;;;;;5062905;28;20617;-74
2021/06/22 10:01:02;;;;;;;2.17;1.00;;;;;;;;;;5058433;28;20048;-74
2021/06/22 10:03:34;;;;;;;4.47;1.30;;;;;;;;;;5061419;28;20383;-73
2021/06/22 10:06:05;;;;;;;1.17;0.57;;;;;;;;;;5059300;28;20491;-74
2021/06/22 10:08:49;;;;;;;3.03;0.82;;;;;;;;;;5062223;28;20061;-74
2021/06/22 10:11:15;;;;;;;;;;;;;;;;;;5060770;28;20052;-73
2021/06/22 10:13:44;;;;;;;2.97;0.65;;;;;;;;;;5061977;28;19920;-73
2021/06/22 10:16:23;;;;;;;0.55;0.30;;;;;;;;;;5060541;28;20068;-73
2021/06/22 10:18:50;;;;;;;2.55;0.75;;;;;;;;;;5059694;28;20047;-73
2021/06/22 10:21:16;;;;;;;0.73;0.55;;;;;;;;;;5058674;28;20087;-74
2021/06/22 10:23:43;;;;;;;0.60;0.60;;;;;;;;;;5060583;28;20051;-73
2021/06/22 10:26:09;;;;;;;3.00;0.40;;;;;;;;;;5060640;28;20385;-74
2021/06/22 10:28:35;;;;;;;3.20;0.93;;;;;;;;;;5062402;28;20055;-74
2021/06/22 10:31:01;;;;;;;1.02;0.95;;;;;;;;;;5058594;28;20245;-74
2021/06/22 10:33:27;;;;;;;1.63;1.00;;;;;;;;;;5062614;28;20486;-74
2021/06/22 10:35:54;;;;;;;2.90;0.77;;;;;;;;;;5062130;28;20060;-74
2021/06/22 10:38:22;;;;;;;1.23;0.80;;;;;;;;;;5063405;28;20582;-74
2021/06/22 10:40:58;;;;;;;2.35;0.80;;;;;;;;;;5059546;28;20465;-74
2021/06/22 10:43:39;;;;;;;1.77;0.60;;;;;;;;;;5063474;28;20056;-74
2021/06/22 10:46:06;;;;;;;0.55;0.50;;;;;;;;;;5062608;28;20175;-74
2021/06/22 10:48:58;;;;;;;3.00;0.47;;;;;;;;;;5063641;28;20049;-74
2021/06/22 10:51:41;;;;;;;1.00;0.68;;;;;;;;;;5061919;28;20056;-74
2021/06/22 10:54:07;;;;;;;1.13;0.98;;;;;;;;;;5066278;28;20212;-74
2021/06/22 10:56:33;;;;;;;0.65;0.60;;;;;;;;;;5067701;28;20048;-74
2021/06/22 10:59:12;;;;;;;1.05;0.70;;;;;;;;;;5066588;28;20116;-74
2021/06/22 11:01:51;;;;;;;2.33;0.93;;;;;;;;;;5063836;28;20048;-74
2021/06/22 11:04:17;;;;;;;1.50;0.52;;;;;;;;;;5065989;28;20056;-74
2021/06/22 11:06:59;;;;;;;2.80;0.70;;;;;;;;;;5067000;28;20151;-74
2021/06/22 11:09:25;;;;;;;0.85;0.25;;;;;;;;;;5065869;28;20044;-74
2021/06/22 11:12:18;;;;;;;1.05;0.80;;;;;;;;;;5065573;28;20410;-74
2021/06/22 11:14:59;;;;;;;2.67;0.88;;;;;;;;;;5063218;28;20040;-74
2021/06/22 11:17:44;;;;;;;0.95;0.75;;;;;;;;;;5066313;28;20500;-74
2021/06/22 11:20:15;;;;;;;1.67;0.50;;;;;;;;;;5062706;28;20652;-74
2021/06/22 11:23:00;;;;;;;1.02;0.60;;;;;;;;;;5066593;28;20054;-74
2021/06/22 11:25:45;;;;;;;0.93;0.75;;;;;;;;;;5064665;28;20395;-74
2021/06/22 11:28:12;;;;;;;1.15;0.35;;;;;;;;;;5064935;28;20070;-76
2021/06/22 11:30:48;;;;;;;1.13;0.60;;;;;;;;;;5064421;28;20049;-78
2021/06/22 11:33:34;;;;;;;2.05;0.35;;;;;;;;;;5064503;28;20057;-78
2021/06/22 11:36:29;;;;;;;0.90;0.50;;;;;;;;;;5062244;28;20461;-77
2021/06/22 11:39:15;;;;;;;0.40;0.40;;;;;;;;;;5050182;28;20143;-78
2021/06/22 11:41:42;;;;;;;0.68;0.50;;;;;;;;;;5061780;28;20441;-77
2021/06/22 11:44:08;;;;;;;0.65;0.50;;;;;;;;;;5063580;28;20045;-75
2021/06/22 11:46:38;;;;;;;1.13;0.50;;;;;;;;;;5066490;28;20045;-77
2021/06/22 11:49:05;;;;;;;0.82;0.60;;;;;;;;;;5064728;28;20059;-77
2021/06/22 11:51:50;;;;;;;0.50;0.50;;;;;;;;;;5064137;28;20124;-77
2021/06/22 11:54:18;;;;;;;1.05;0.75;;;;;;;;;;5064628;28;20048;-73
2021/06/22 11:56:44;;;;;;;0.60;0.60;;;;;;;;;;5061350;28;20458;-73
2021/06/22 11:59:11;;;;;;;1.45;0.45;;;;;;;;;;5063091;28;20610;-74
2021/06/22 12:01:43;;;;;;;0.88;0.47;;;;;;;;;;5060103;28;20048;-74
2021/06/22 12:04:09;;;;;;;0.70;0.70;;;;;;;;;;5059924;28;20454;-73
2021/06/22 12:06:36;;;;;;;0.77;0.57;;;;;;;;;;5045834;28;20048;-73
2021/06/22 12:09:16;;;;;;;1.73;0.70;;;;;;;;;;5044253;28;20037;-73
2021/06/22 12:11:44;;;;;;;5.78;0.68;;;;;;;;;;5062184;28;20501;-74
2021/06/22 12:14:13;;;;;;;2.95;0.60;;;;;;;;;;5058463;28;20548;-70
2021/06/22 12:16:43;;;;;;;1.48;0.90;;;;;;;;;;5063867;28;20053;-71
2021/06/22 12:19:14;;;;;;;1.40;0.50;;;;;;;;;;5061745;28;20065;-70
2021/06/22 12:21:41;;;;;;;0.63;0.57;;;;;;;;;;5064237;28;20049;-71
2021/06/22 12:24:11;;;;;;;4.70;1.08;;;;;;;;;;5065151;28;20055;-70
2021/06/22 12:26:41;;;;;;;0.93;0.60;;;;;;;;;;5062929;28;20430;-70
2021/06/22 12:29:35;;;;;;;1.33;0.57;;;;;;;;;;5063652;28;20064;-70
2021/06/22 12:32:03;;;;;;;0.65;0.40;;;;;;;;;;5057684;28;20110;-70
2021/06/22 12:34:31;;;;;;;0.85;0.85;;;;;;;;;;5046330;28;20052;-70
2021/06/22 12:36:57;;;;;;;0.85;0.57;;;;;;;;;;5062005;28;20052;-73
2021/06/22 12:39:26;;;;;;;3.20;0.77;;;;;;;;;;5063237;28;20049;-73
2021/06/22 12:41:52;;;;;;;0.60;0.50;;;;;;;;;;5062847;28;20052;-73
2021/06/22 12:44:26;;;;;;;0.85;0.30;;;;;;;;;;5063461;28;20546;-73
2021/06/22 12:46:52;;;;;;;0.93;0.52;;;;;;;;;;5060997;28;20455;-72
2021/06/22 12:49:24;;;;;;;1.15;0.60;;;;;;;;;;5060675;28;20052;-72
2021/06/22 12:51:51;;;;;;;0.20;0.20;;;;;;;;;;5062488;28;20533;-73
2021/06/22 12:54:20;;;;;;;0.68;0.40;;;;;;;;;;5062612;28;20040;-73
2021/06/22 12:57:07;;;;;;;0.60;0.40;;;;;;;;;;5063887;28;20498;-72
2021/06/22 12:59:47;;;;;;;0.73;0.47;;;;;;;;;;5062727;28;20562;-73
2021/06/22 13:02:13;;;;;;;0.73;0.45;;;;;;;;;;5061624;28;20052;-73
2021/06/22 13:04:40;;;;;;;0.60;0.40;;;;;;;;;;5063720;28;20121;-74
2021/06/22 13:07:14;;;;;;;1.70;0.30;;;;;;;;;;5062620;28;20491;-74
2021/06/22 13:09:41;;;;;;;1.65;0.40;;;;;;;;;;5060352;28;20052;-73
2021/06/22 13:12:13;;;;;;;0.80;0.68;;;;;;;;;;5060953;28;20507;-73
2021/06/22 13:14:42;;;;;;;0.47;0.38;;;;;;;;;;5062572;28;20458;-73
2021/06/22 13:17:09;;;;;;;1.30;0.60;;;;;;;;;;5063050;28;20037;-74
2021/06/22 13:19:44;;;;;;;0.32;0.32;;;;;;;;;;5062295;28;20127;-74
2021/06/22 13:22:12;;;;;;;0.80;0.40;;;;;;;;;;5063893;28;20044;-75
2021/06/22 13:24:43;;;;;;;0.47;0.47;;;;;;;;;;5066182;28;20051;-75
2021/06/22 13:27:25;;;;;;;0.30;0.30;;;;;;;;;;5062807;28;20110;-75
2021/06/22 13:30:03;;;;;;;2.67;0.60;;;;;;;;;;5060648;28;20375;-75
2021/06/22 13:32:38;;;;;;;0.30;0.30;;;;;;;;;;5061184;28;20084;-73
2021/06/22 13:35:08;;;;;;;1.33;0.50;;;;;;;;;;5057725;28;20044;-75
2021/06/22 13:37:45;;;;;;;0.90;0.43;;;;;;;;;;5061577;28;20047;-73
2021/06/22 13:40:12;;;;;;;0.63;0.63;;;;;;;;;;5060150;28;20117;-74
2021/06/22 13:42:38;;;;;;;2.25;0.50;;;;;;;;;;5062998;28;20128;-74
2021/06/22 13:45:08;;;;;;;1.27;0.60;;;;;;;;;;5062106;28;20118;-74
2021/06/22 13:47:41;;;;;;;1.15;0.65;;;;;;;;;;5059893;28;20115;-74
2021/06/22 13:50:14;;;;;;;2.22;0.55;;;;;;;;;;5060727;28;20086;-73
2021/06/22 13:52:47;;;;;;;0.35;0.35;;;;;;;;;;5061086;28;20086;-73
2021/06/22 13:55:30;;;;;;;2.08;0.55;;;;;;;;;;5062331;28;20131;-74
2021/06/22 13:57:56;;;;;;;0.68;0.68;;;;;;;;;;5062459;28;20066;-73
2021/06/22 14:00:22;;;;;;;0.60;0.60;;;;;;;;;;5043437;28;20052;-73
2021/06/22 14:02:48;;;;;;;0.88;0.30;;;;;;;;;;5061273;28;20423;-73
2021/06/22 14:05:14;;;;;;;0.30;0.30;;;;;;;;;;5062407;28;20064;-73
2021/06/22 14:07:40;;;;;;;2.75;0.50;;;;;;;;;;5060206;28;20045;-73
2021/06/22 14:10:07;;;;;;;0.30;0.30;;;;;;;;;;5060352;28;20036;-73
2021/06/22 14:12:34;;;;;;;0.30;0.30;;;;;;;;;;5063414;28;20107;-72
2021/06/22 14:15:00;;;;;;;0.40;0.32;;;;;;;;;;5061591;28;20478;-73
2021/06/22 14:17:26;;;;;;;3.55;0.55;;;;;;;;;;5062625;28;20047;-73
2021/06/22 14:19:52;;;;;;;3.40;1.10;;;;;;;;;;5059395;28;20052;-73
2021/06/22 14:22:18;;;;;;;2.45;1.13;;;;;;;;;;5061844;28;20129;-73
2021/06/22 14:24:44;;;;;;;1.48;1.00;;;;;;;;;;5056262;28;20041;-73
2021/06/22 14:27:11;;;;;;;3.53;0.73;;;;;;;;;;5058708;28;20110;-73
2021/06/22 14:29:37;;;;;;;1.13;0.68;;;;;;;;;;5060634;28;20113;-75
2021/06/22 14:32:03;;;;;;;1.67;0.82;;;;;;;;;;5060413;28;20053;-74
2021/06/22 14:34:30;;;;;;;1.20;1.10;;;;;;;;;;5061173;28;20056;-73
2021/06/22 14:36:56;;;;;;;5.97;2.00;;;;;;;;;;5059862;28;20503;-75
2021/06/22 14:39:22;;;;;;;4.30;3.00;;;;;;;;;;5059300;28;20052;-78
2021/06/22 14:41:48;;;;;;;3.05;1.40;;;;;;;;;;5059670;28;20041;-73
2021/06/22 14:44:14;;;;;;;1.23;1.08;;;;;;;;;;5060169;28;20129;-73
2021/06/22 14:46:40;;;;;;;3.38;1.25;;;;;;;;;;5061764;28;20091;-74
2021/06/22 14:49:07;;;;;;;2.28;1.17;;;;;;;;;;5060581;28;20079;-74
2021/06/22 14:51:33;;;;;;;2.92;0.90;;;;;;;;;;5058159;28;20049;-74